Time;durP1;ratioP1;P1;durP2;ratioP2;P2;SDS_P1;SDS_P2;PMS_P1;PMS_P2;Temp;Humidity;BMP_temperature;BMP_pressure;BME280_temperature;BME280_humidity;BME280_pressure;Samples;Min_cycle;Max_cycle;Signal;HPM_P1;HPM_P2
2022/06/05 00:01:12;;;;;;;;;;;14.70;99.90;;;;;;4893872;29;19949;-58
2022/06/05 00:03:44;;;;;;;;;;;14.70;99.90;;;;;;4890939;29;19946;-58
2022/06/05 00:06:36;;;;;;;;;;;14.70;99.90;;;;;;4891256;29;20006;-58
2022/06/05 00:09:07;;;;;;;;;;;14.50;99.90;;;;;;4874256;29;19959;-58
2022/06/05 00:11:52;;;;;;;;;;;14.60;99.90;;;;;;4893794;29;19921;-58
2022/06/05 00:14:18;;;;;;;;;;;14.40;99.90;;;;;;4891484;29;19911;-57
2022/06/05 00:16:44;;;;;;;;;;;14.30;99.90;;;;;;4894249;29;20415;-58
2022/06/05 00:19:09;;;;;;;;;;;14.20;99.90;;;;;;4893047;29;19915;-58
2022/06/05 00:21:35;;;;;;;;;;;14.30;99.90;;;;;;4893807;29;19907;-58
2022/06/05 00:24:00;;;;;;;;;;;14.10;99.90;;;;;;4892834;29;19912;-57
2022/06/05 00:26:32;;;;;;;;;;;14.10;99.90;;;;;;4893520;29;19915;-57
2022/06/05 00:29:13;;;;;;;;;;;14.00;99.90;;;;;;4892864;29;19975;-58
2022/06/05 00:31:49;;;;;;;;;;;13.90;99.90;;;;;;4894507;29;19915;-57
2022/06/05 00:34:15;;;;;;;;;;;13.80;99.90;;;;;;4893155;29;19925;-58
2022/06/05 00:36:49;;;;;;;;;;;13.80;99.90;;;;;;4894853;29;19911;-58
2022/06/05 00:39:15;;;;;;;;;;;13.70;99.90;;;;;;4889767;29;20419;-58
2022/06/05 00:41:47;;;;;;;;;;;13.80;99.90;;;;;;4894178;29;19998;-58
2022/06/05 00:44:15;;;;;;;;;;;13.80;99.90;;;;;;4893076;29;19963;-58
2022/06/05 00:46:41;;;;;;;;;;;13.80;99.90;;;;;;4892843;29;20365;-58
2022/06/05 00:49:07;;;;;;;;;;;13.80;99.90;;;;;;4892335;29;19911;-58
2022/06/05 00:51:32;;;;;;;;;;;13.90;99.90;;;;;;4892629;29;19911;-58
2022/06/05 00:53:58;;;;;;;;;;;14.10;99.90;;;;;;4892610;29;19912;-58
2022/06/05 00:56:24;;;;;;;;;;;14.10;99.90;;;;;;4892988;29;19911;-59
2022/06/05 00:58:51;;;;;;;;;;;14.10;99.90;;;;;;4892876;29;19999;-58
2022/06/05 01:01:16;;;;;;;;;;;13.90;99.90;;;;;;4892276;29;19967;-59
2022/06/05 01:03:42;;;;;;;;;;;14.00;99.90;;;;;;4892230;29;20332;-58
2022/06/05 01:06:07;;;;;;;;;;;14.00;99.90;;;;;;4890491;29;19919;-57
2022/06/05 01:08:33;;;;;;;;;;;14.00;99.90;;;;;;4892411;29;19912;-58
2022/06/05 01:11:13;;;;;;;;;;;13.90;99.90;;;;;;4892531;29;19963;-58
2022/06/05 01:13:49;;;;;;;;;;;13.70;99.90;;;;;;4895044;29;19908;-58
2022/06/05 01:16:18;;;;;;;;;;;13.60;99.90;;;;;;4894041;29;20346;-58
2022/06/05 01:19:03;;;;;;;;;;;13.60;99.90;;;;;;4895969;29;20362;-58
2022/06/05 01:21:38;;;;;;;;;;;13.60;99.90;;;;;;4892768;29;19970;-58
2022/06/05 01:24:13;;;;;;;;;;;13.90;99.90;;;;;;4892988;29;19915;-58
2022/06/05 01:26:49;;;;;;;;;;;13.90;99.90;;;;;;4888932;29;19912;-59
2022/06/05 01:29:30;;;;;;;;;;;13.90;99.90;;;;;;4891570;29;19940;-58
2022/06/05 01:32:00;;;;;;;;;;;13.70;99.90;;;;;;4889279;29;19922;-57
2022/06/05 01:34:30;;;;;;;;;;;13.50;99.90;;;;;;4890198;29;19937;-57
2022/06/05 01:36:59;;;;;;;;;;;13.40;99.90;;;;;;4892334;29;20043;-58
2022/06/05 01:39:31;;;;;;;;;;;13.30;99.90;;;;;;4891308;29;19965;-59
2022/06/05 01:42:00;;;;;;;;;;;13.20;99.90;;;;;;4891981;29;20637;-59
2022/06/05 01:44:29;;;;;;;;;;;13.00;99.90;;;;;;4891578;29;20403;-58
2022/06/05 01:46:57;;;;;;;;;;;13.00;99.90;;;;;;4891906;29;19916;-57
2022/06/05 01:49:36;;;;;;;;;;;12.80;99.90;;;;;;4891281;29;20026;-58
2022/06/05 01:52:09;;;;;;;;;;;12.80;99.90;;;;;;4891348;29;20428;-58
2022/06/05 01:54:41;;;;;;;;;;;12.70;99.90;;;;;;4894314;29;19907;-58
2022/06/05 01:57:08;;;;;;;;;;;12.80;99.90;;;;;;4893510;29;19911;-58
2022/06/05 01:59:47;;;;;;;;;;;12.80;99.90;;;;;;4891588;29;19919;-58
2022/06/05 02:02:15;;;;;;;;;;;12.80;99.90;;;;;;4886939;29;19923;-57
2022/06/05 02:04:43;;;;;;;;;;;12.80;99.90;;;;;;4890702;29;19928;-58
2022/06/05 02:07:12;;;;;;;;;;;12.90;99.90;;;;;;4889950;29;19908;-58
2022/06/05 02:09:45;;;;;;;;;;;12.90;99.90;;;;;;4891362;29;20284;-58
2022/06/05 02:12:10;;;;;;;;;;;12.90;99.90;;;;;;4883612;29;20279;-58
2022/06/05 02:14:37;;;;;;;;;;;12.80;99.90;;;;;;4891346;29;19912;-58
2022/06/05 02:17:04;;;;;;;;;;;12.80;99.90;;;;;;4892634;29;19948;-58
2022/06/05 02:19:29;;;;;;;;;;;12.70;99.90;;;;;;4891363;29;19931;-58
2022/06/05 02:21:59;;;;;;;;;;;12.80;99.90;;;;;;4891328;29;20356;-58
2022/06/05 02:24:25;;;;;;;;;;;12.90;99.90;;;;;;4890711;29;19916;-58
2022/06/05 02:26:51;;;;;;;;;;;12.90;99.90;;;;;;4891034;29;19911;-58
2022/06/05 02:29:20;;;;;;;;;;;12.80;99.90;;;;;;4890777;29;20584;-58
2022/06/05 02:32:01;;;;;;;;;;;12.70;99.90;;;;;;4891229;29;19916;-58
2022/06/05 02:34:45;;;;;;;;;;;12.70;99.90;;;;;;4890506;29;19922;-58
2022/06/05 02:37:23;;;;;;;;;;;12.60;99.90;;;;;;4893238;29;19922;-58
2022/06/05 02:40:04;;;;;;;;;;;12.50;99.90;;;;;;4891647;29;19916;-58
2022/06/05 02:42:32;;;;;;;;;;;12.50;99.90;;;;;;4891012;29;19911;-58
2022/06/05 02:45:01;;;;;;;;;;;12.50;99.90;;;;;;4889345;29;19915;-58
2022/06/05 02:47:46;;;;;;;;;;;12.60;99.90;;;;;;4890225;29;19911;-58
2022/06/05 02:50:21;;;;;;;;;;;12.90;99.90;;;;;;4887135;29;20343;-58
2022/06/05 02:52:48;;;;;;;;;;;13.00;99.90;;;;;;4890963;29;19911;-58
2022/06/05 02:55:15;;;;;;;;;;;13.00;99.90;;;;;;4890251;29;19915;-58
2022/06/05 02:57:41;;;;;;;;;;;13.10;99.90;;;;;;4890836;29;19991;-58
2022/06/05 03:00:08;;;;;;;;;;;13.10;99.90;;;;;;4886649;29;19962;-58
2022/06/05 03:05:17;;;;;;;;;;;13.30;99.90;;;;;;4888181;29;19978;-58
2022/06/05 03:07:43;;;;;;;;;;;13.40;99.90;;;;;;4890587;29;19916;-57
2022/06/05 03:10:09;;;;;;;;;;;13.40;99.90;;;;;;4890018;29;20029;-58
2022/06/05 03:12:35;;;;;;;;;;;13.40;99.90;;;;;;4890604;29;19912;-58
2022/06/05 03:15:01;;;;;;;;;;;13.30;99.90;;;;;;4895987;29;19907;-58
2022/06/05 03:17:29;;;;;;;;;;;13.10;99.90;;;;;;4896410;29;20001;-58
2022/06/05 03:19:55;;;;;;;;;;;13.20;99.90;;;;;;4894093;29;20476;-58
2022/06/05 03:22:20;;;;;;;;;;;13.00;99.90;;;;;;4894106;29;19982;-57
2022/06/05 03:24:46;;;;;;;;;;;13.10;99.90;;;;;;4895652;29;20550;-58
2022/06/05 03:27:11;;;;;;;;;;;13.10;99.90;;;;;;4893937;29;19907;-58
2022/06/05 03:29:37;;;;;;;;;;;13.20;99.90;;;;;;4894221;29;19911;-58
2022/06/05 03:32:02;;;;;;;;;;;13.30;99.90;;;;;;4894314;29;20376;-58
2022/06/05 03:34:28;;;;;;;;;;;13.30;99.90;;;;;;4892056;29;19998;-58
2022/06/05 03:36:53;;;;;;;;;;;13.50;99.90;;;;;;4894197;29;20031;-58
2022/06/05 03:39:19;;;;;;;;;;;13.30;99.90;;;;;;4893729;29;19931;-58
2022/06/05 03:41:44;;;;;;;;;;;13.40;99.90;;;;;;4894332;29;19934;-58
2022/06/05 03:44:12;;;;;;;;;;;13.40;99.90;;;;;;4893323;29;19959;-58
2022/06/05 03:46:39;;;;;;;;;;;13.40;99.90;;;;;;4890501;29;19928;-57
2022/06/05 03:49:06;;;;;;;;;;;13.50;99.90;;;;;;4893942;29;19938;-57
2022/06/05 03:51:31;;;;;;;;;;;13.50;99.90;;;;;;4893305;29;19919;-57
2022/06/05 03:53:57;;;;;;;;;;;13.60;99.90;;;;;;4894110;29;19912;-58
2022/06/05 03:56:24;;;;;;;;;;;13.70;99.90;;;;;;4895906;29;19907;-58
2022/06/05 03:58:50;;;;;;;;;;;13.60;99.90;;;;;;4895943;29;20276;-58
2022/06/05 04:01:17;;;;;;;;;;;13.70;99.90;;;;;;4893715;29;19911;-57
2022/06/05 04:03:43;;;;;;;;;;;13.80;99.90;;;;;;4890270;29;20014;-58
2022/06/05 04:06:10;;;;;;;;;;;13.80;99.90;;;;;;4892770;29;20043;-57
2022/06/05 04:08:37;;;;;;;;;;;14.00;99.90;;;;;;4876739;29;20359;-57
2022/06/05 04:11:06;;;;;;;;;;;14.10;99.90;;;;;;4893225;29;19919;-58
2022/06/05 04:13:32;;;;;;;;;;;14.10;99.90;;;;;;4893290;29;19915;-58
2022/06/05 04:15:58;;;;;;;;;;;14.30;99.90;;;;;;4893437;29;19919;-58
2022/06/05 04:18:23;;;;;;;;;;;14.30;99.90;;;;;;4878010;29;19966;-57
2022/06/05 04:20:49;;;;;;;;;;;14.40;99.90;;;;;;4876706;29;19911;-58
2022/06/05 04:23:14;;;;;;;;;;;14.50;99.90;;;;;;4893115;29;19912;-57
2022/06/05 04:25:43;;;;;;;;;;;14.50;99.90;;;;;;4875861;29;19911;-58
2022/06/05 04:28:09;;;;;;;;;;;14.50;99.90;;;;;;4892943;29;19917;-57
2022/06/05 04:30:35;;;;;;;;;;;14.60;99.90;;;;;;4893269;29;19912;-59
2022/06/05 04:33:01;;;;;;;;;;;14.60;99.90;;;;;;4893096;29;19922;-58
2022/06/05 04:35:26;;;;;;;;;;;14.70;99.90;;;;;;4891892;29;20355;-58
2022/06/05 04:37:52;;;;;;;;;;;14.70;99.90;;;;;;4871527;29;19913;-58
2022/06/05 04:40:17;;;;;;;;;;;14.70;99.90;;;;;;4877628;29;19912;-58
2022/06/05 04:42:43;;;;;;;;;;;14.90;99.90;;;;;;4892976;29;20010;-58
2022/06/05 04:45:08;;;;;;;;;;;15.00;99.90;;;;;;4893615;29;20172;-58
2022/06/05 04:47:34;;;;;;;;;;;15.00;99.90;;;;;;4893963;29;19908;-58
2022/06/05 04:49:59;;;;;;;;;;;15.10;99.90;;;;;;4892904;29;20398;-57
2022/06/05 04:52:25;;;;;;;;;;;15.10;99.90;;;;;;4892530;29;20459;-59
2022/06/05 04:54:51;;;;;;;;;;;15.30;99.90;;;;;;4892887;29;19912;-58
2022/06/05 04:57:16;;;;;;;;;;;15.30;99.90;;;;;;4892083;29;19934;-58
2022/06/05 04:59:42;;;;;;;;;;;15.30;99.90;;;;;;4888921;29;19922;-58
2022/06/05 05:02:07;;;;;;;;;;;15.40;99.90;;;;;;4892640;29;19916;-57
2022/06/05 05:04:33;;;;;;;;;;;15.40;99.90;;;;;;4890353;29;20307;-57
2022/06/05 05:06:58;;;;;;;;;;;15.40;99.90;;;;;;4893076;29;20344;-57
2022/06/05 05:09:24;;;;;;;;;;;15.60;99.90;;;;;;4891936;29;19929;-58
2022/06/05 05:11:49;;;;;;;;;;;15.70;99.90;;;;;;4892651;29;20459;-58
2022/06/05 05:14:15;;;;;;;;;;;15.60;99.90;;;;;;4892078;29;19945;-58
2022/06/05 05:16:40;;;;;;;;;;;15.60;99.90;;;;;;4894430;29;19998;-57
2022/06/05 05:19:07;;;;;;;;;;;15.70;99.90;;;;;;4895172;29;19919;-57
2022/06/05 05:21:32;;;;;;;;;;;15.90;99.90;;;;;;4891571;29;19915;-58
2022/06/05 05:23:58;;;;;;;;;;;16.10;99.90;;;;;;4892777;29;19971;-58
2022/06/05 05:26:25;;;;;;;;;;;16.10;99.90;;;;;;4892807;29;20015;-58
2022/06/05 05:28:51;;;;;;;;;;;16.10;99.90;;;;;;4892999;29;19911;-59
2022/06/05 05:31:18;;;;;;;;;;;16.30;99.90;;;;;;4891515;29;20456;-58
2022/06/05 05:33:44;;;;;;;;;;;16.40;99.90;;;;;;4891886;29;19927;-58
2022/06/05 05:36:09;;;;;;;;;;;16.50;99.90;;;;;;4890075;29;19916;-59
2022/06/05 05:38:35;;;;;;;;;;;16.60;99.90;;;;;;4891131;29;19915;-58
2022/06/05 05:43:45;;;;;;;;;;;16.70;99.90;;;;;;4892304;29;20423;-58
2022/06/05 05:46:11;;;;;;;;;;;16.50;99.90;;;;;;4874869;29;19911;-58
2022/06/05 05:48:37;;;;;;;;;;;16.30;99.90;;;;;;4891393;29;19916;-58
2022/06/05 05:51:08;;;;;;;;;;;16.50;99.90;;;;;;4892019;29;20023;-58
2022/06/05 05:53:34;;;;;;;;;;;16.40;99.90;;;;;;4891316;29;19959;-58
2022/06/05 05:56:05;;;;;;;;;;;16.30;99.90;;;;;;4892061;29;19911;-59
2022/06/05 05:58:30;;;;;;;;;;;16.40;99.90;;;;;;4893500;29;19998;-57
2022/06/05 06:01:06;;;;;;;;;;;16.60;99.90;;;;;;4893520;29;20006;-58
2022/06/05 06:03:32;;;;;;;;;;;16.70;99.90;;;;;;4890776;29;20458;-58
2022/06/05 06:05:59;;;;;;;;;;;16.80;99.90;;;;;;4889857;29;19963;-58
2022/06/05 06:08:24;;;;;;;;;;;17.00;99.90;;;;;;4892290;29;19918;-58
2022/06/05 06:10:50;;;;;;;;;;;16.90;99.90;;;;;;4891567;29;19911;-58
2022/06/05 06:13:15;;;;;;;;;;;16.90;99.90;;;;;;4887347;29;19915;-58
2022/06/05 06:15:41;;;;;;;;;;;17.00;99.90;;;;;;4891492;29;19907;-58
2022/06/05 06:18:06;;;;;;;;;;;17.20;99.90;;;;;;4893387;29;19951;-58
2022/06/05 06:20:32;;;;;;;;;;;17.20;99.90;;;;;;4890736;29;20009;-58
2022/06/05 06:22:57;;;;;;;;;;;17.30;99.90;;;;;;4891267;29;19918;-57
2022/06/05 06:25:23;;;;;;;;;;;17.50;99.90;;;;;;4890686;29;20697;-58
2022/06/05 06:27:48;;;;;;;;;;;17.60;99.90;;;;;;4891228;29;19918;-58
2022/06/05 06:30:14;;;;;;;;;;;17.80;99.90;;;;;;4890636;29;20320;-58
2022/06/05 06:32:39;;;;;;;;;;;17.80;99.90;;;;;;4891042;29;19911;-58
2022/06/05 06:35:05;;;;;;;;;;;18.00;99.90;;;;;;4889389;29;20433;-59
2022/06/05 06:37:30;;;;;;;;;;;18.00;99.90;;;;;;4891517;29;19963;-58
2022/06/05 06:39:56;;;;;;;;;;;18.00;99.90;;;;;;4893774;29;19911;-58
2022/06/05 06:42:21;;;;;;;;;;;18.20;99.90;;;;;;4892437;29;19990;-58
2022/06/05 06:44:47;;;;;;;;;;;18.00;99.90;;;;;;4891022;29;19927;-58
2022/06/05 06:47:12;;;;;;;;;;;18.10;99.90;;;;;;4891136;29;20123;-58
2022/06/05 06:49:38;;;;;;;;;;;18.30;99.90;;;;;;4891017;29;20284;-59
2022/06/05 06:52:04;;;;;;;;;;;18.30;99.90;;;;;;4891225;29;19919;-59
2022/06/05 06:54:29;;;;;;;;;;;18.50;99.90;;;;;;4890522;29;20387;-58
2022/06/05 06:56:55;;;;;;;;;;;18.70;99.90;;;;;;4887227;29;19918;-59
2022/06/05 06:59:20;;;;;;;;;;;18.80;99.90;;;;;;4890347;29;19938;-58
2022/06/05 07:01:46;;;;;;;;;;;18.90;99.90;;;;;;4890814;29;19934;-57
2022/06/05 07:04:12;;;;;;;;;;;19.00;99.90;;;;;;4888718;29;19950;-58
2022/06/05 07:06:37;;;;;;;;;;;19.20;99.90;;;;;;4890626;29;20478;-58
2022/06/05 07:09:03;;;;;;;;;;;19.00;99.90;;;;;;4890867;29;19923;-57
2022/06/05 07:11:28;;;;;;;;;;;18.70;99.90;;;;;;4890359;29;19958;-58
2022/06/05 07:13:56;;;;;;;;;;;18.70;99.90;;;;;;4890714;29;19918;-58
2022/06/05 07:16:21;;;;;;;;;;;18.90;99.90;;;;;;4890293;29;19912;-58
2022/06/05 07:18:47;;;;;;;;;;;19.00;99.90;;;;;;4893707;29;19918;-58
2022/06/05 07:21:17;;;;;;;;;;;18.90;99.90;;;;;;4893243;29;19907;-58
2022/06/05 07:23:43;;;;;;;;;;;19.20;99.90;;;;;;4891718;29;19990;-58
2022/06/05 07:26:09;;;;;;;;;;;19.20;99.90;;;;;;4890886;29;19911;-58
2022/06/05 07:28:35;;;;;;;;;;;19.50;99.90;;;;;;4891281;29;19959;-58
2022/06/05 07:31:01;;;;;;;;;;;19.40;99.90;;;;;;4890712;29;19911;-58
2022/06/05 07:33:28;;;;;;;;;;;19.70;99.90;;;;;;4890151;29;19915;-58
2022/06/05 07:35:55;;;;;;;;;;;19.80;99.90;;;;;;4888910;29;19951;-59
2022/06/05 07:38:20;;;;;;;;;;;19.70;99.90;;;;;;4890022;29;19911;-58
2022/06/05 07:40:46;;;;;;;;;;;19.80;99.90;;;;;;4873739;29;19983;-58
2022/06/05 07:43:11;;;;;;;;;;;19.70;99.90;;;;;;4890583;29;19955;-58
2022/06/05 07:45:37;;;;;;;;;;;20.00;99.90;;;;;;4890169;29;20598;-58
2022/06/05 07:48:03;;;;;;;;;;;20.30;99.90;;;;;;4890248;29;19916;-59
2022/06/05 07:50:29;;;;;;;;;;;20.40;99.90;;;;;;4890145;29;19911;-58
2022/06/05 07:55:38;;;;;;;;;;;20.50;99.90;;;;;;4890013;29;19999;-58
2022/06/05 07:58:04;;;;;;;;;;;20.20;99.90;;;;;;4890665;29;20004;-58
2022/06/05 08:00:29;;;;;;;;;;;20.60;99.90;;;;;;4893925;29;20356;-58
2022/06/05 08:02:55;;;;;;;;;;;20.50;99.90;;;;;;4896509;29;20329;-58
2022/06/05 08:05:20;;;;;;;;;;;20.50;99.90;;;;;;4891073;29;19927;-58
2022/06/05 08:07:46;;;;;;;;;;;20.60;99.90;;;;;;4892364;29;20296;-58
2022/06/05 08:10:11;;;;;;;;;;;20.40;99.90;;;;;;4895185;29;19911;-58
2022/06/05 08:12:37;;;;;;;;;;;20.30;99.90;;;;;;4892942;29;19911;-58
2022/06/05 08:15:04;;;;;;;;;;;20.60;99.90;;;;;;4893588;29;20467;-58
2022/06/05 08:17:31;;;;;;;;;;;20.90;99.90;;;;;;4896605;29;20467;-57
2022/06/05 08:19:56;;;;;;;;;;;21.00;99.90;;;;;;4893269;29;19915;-58
2022/06/05 08:22:23;;;;;;;;;;;21.60;99.90;;;;;;4892877;29;19911;-58
2022/06/05 08:24:49;;;;;;;;;;;22.40;99.90;;;;;;4893612;29;20286;-58
2022/06/05 08:27:15;;;;;;;;;;;22.70;99.90;;;;;;4893460;29;19912;-57
2022/06/05 08:29:41;;;;;;;;;;;23.60;99.90;;;;;;4892687;29;19934;-58
2022/06/05 08:32:07;;;;;;;;;;;24.30;99.90;;;;;;4893270;29;20393;-58
2022/06/05 08:34:33;;;;;;;;;;;23.60;99.90;;;;;;4890896;29;20406;-57
2022/06/05 08:42:30;;;;;;;;;;;22.50;99.90;;;;;;4895252;29;19995;-58
2022/06/05 08:45:01;;;;;;;;;;;23.00;99.90;;;;;;4894457;29;20474;-58
2022/06/05 08:47:50;;;;;;;;;;;23.20;99.90;;;;;;4892572;29;20320;-58
2022/06/05 08:50:35;;;;;;;;;;;22.90;99.90;;;;;;4885534;29;20364;-58
2022/06/05 08:53:08;;;;;;;;;;;23.10;99.90;;;;;;4891710;29;19922;-59
2022/06/05 08:55:37;;;;;;;;;;;23.60;99.90;;;;;;4890544;29;20383;-59
2022/06/05 08:58:09;;;;;;;;;;;23.50;99.90;;;;;;4892929;29;19911;-58
2022/06/05 09:00:34;;;;;;;;;;;24.00;99.90;;;;;;4892203;29;19929;-58
2022/06/05 09:03:03;;;;;;;;;;;24.00;99.90;;;;;;4893146;29;20054;-58
2022/06/05 09:05:31;;;;;;;;;;;24.60;99.90;;;;;;4890122;29;19970;-58
2022/06/05 09:08:04;;;;;;;;;;;24.50;99.90;;;;;;4892841;29;19919;-58
2022/06/05 09:10:34;;;;;;;;;;;24.40;99.90;;;;;;4891911;29;19911;-58
2022/06/05 09:13:05;;;;;;;;;;;25.00;99.90;;;;;;4892621;29;19911;-58
2022/06/05 09:15:42;;;;;;;;;;;24.90;99.90;;;;;;4888620;29;19975;-58
2022/06/05 09:18:17;;;;;;;;;;;25.20;99.90;;;;;;4894256;29;19966;-59
2022/06/05 09:20:55;;;;;;;;;;;25.60;99.90;;;;;;4889775;29;19912;-58
2022/06/05 09:23:22;;;;;;;;;;;25.70;99.90;;;;;;4894715;29;19919;-58
2022/06/05 09:25:53;;;;;;;;;;;26.00;99.90;;;;;;4893269;29;19912;-58
2022/06/05 09:28:32;;;;;;;;;;;25.80;99.90;;;;;;4888836;29;19918;-58
2022/06/05 09:31:21;;;;;;;;;;;25.30;99.90;;;;;;4893679;29;19907;-58
2022/06/05 09:33:48;;;;;;;;;;;25.50;99.90;;;;;;4889852;29;19915;-58
2022/06/05 09:36:16;;;;;;;;;;;25.50;99.90;;;;;;4890445;29;19948;-59
2022/06/05 09:38:46;;;;;;;;;;;25.00;99.90;;;;;;4891784;29;20610;-58
2022/06/05 09:41:12;;;;;;;;;;;24.80;99.90;;;;;;4892096;29;19999;-59
2022/06/05 09:43:40;;;;;;;;;;;24.70;99.90;;;;;;4891471;29;19946;-59
2022/06/05 09:46:12;;;;;;;;;;;24.60;99.90;;;;;;4891936;29;20734;-58
2022/06/05 09:48:44;;;;;;;;;;;24.20;99.90;;;;;;4891174;29;19912;-58
2022/06/05 09:51:11;;;;;;;;;;;24.10;99.90;;;;;;4888703;29;19911;-58
2022/06/05 09:53:42;;;;;;;;;;;24.20;99.90;;;;;;4891292;29;20784;-58
2022/06/05 09:56:21;;;;;;;;;;;24.20;99.90;;;;;;4892055;29;20038;-58
2022/06/05 09:59:25;;;;;;;;;;;24.00;99.90;;;;;;4888046;29;20365;-58
2022/06/05 10:01:54;;;;;;;;;;;23.80;99.90;;;;;;4845445;29;19924;-59
2022/06/05 10:04:20;;;;;;;;;;;23.80;99.90;;;;;;4845082;29;20328;-58
2022/06/05 10:06:48;;;;;;;;;;;23.70;99.90;;;;;;4841136;29;20345;-59
2022/06/05 10:09:20;;;;;;;;;;;23.50;99.90;;;;;;4840606;29;19920;-59
2022/06/05 10:11:51;;;;;;;;;;;23.30;99.90;;;;;;4844643;29;19912;-58
2022/06/05 10:14:28;;;;;;;;;;;23.40;99.90;;;;;;4843094;29;19912;-58
2022/06/05 10:17:02;;;;;;;;;;;23.30;99.90;;;;;;4842337;29;20521;-58
2022/06/05 10:19:46;;;;;;;;;;;23.40;99.90;;;;;;4842208;29;20435;-58
2022/06/05 10:22:32;;;;;;;;;;;23.30;99.90;;;;;;4842328;29;19916;-59
2022/06/05 10:25:17;;;;;;;;;;;22.70;99.90;;;;;;4841396;29;19912;-58
2022/06/05 10:27:47;;;;;;;;;;;22.30;99.90;;;;;;4840619;29;19912;-58
2022/06/05 10:30:15;;;;;;;;;;;21.60;99.90;;;;;;4841977;29;19912;-58
2022/06/05 10:32:54;;;;;;;;;;;21.20;99.90;;;;;;4866503;29;19915;-58
2022/06/05 10:35:23;;;;;;;;;;;20.50;99.90;;;;;;4889417;29;19915;-57
2022/06/05 10:37:54;;;;;;;;;;;20.00;99.90;;;;;;4890722;29;19918;-58
2022/06/05 10:40:30;;;;;;;;;;;19.80;99.90;;;;;;4890976;29;19930;-57
2022/06/05 10:43:04;;;;;;;;;;;19.80;99.90;;;;;;4887489;29;19956;-58
2022/06/05 10:45:29;;;;;;;;;;;19.90;99.90;;;;;;4893024;29;20067;-58
2022/06/05 10:47:58;;;;;;;;;;;19.80;99.90;;;;;;4891122;29;19942;-59
2022/06/05 10:50:26;;;;;;;;;;;19.90;99.90;;;;;;4890974;29;19972;-58
2022/06/05 10:52:57;;;;;;;;;;;19.70;99.90;;;;;;4892495;29;19947;-58
2022/06/05 10:55:41;;;;;;;;;;;19.80;99.90;;;;;;4890998;29;19911;-58
2022/06/05 10:58:07;;;;;;;;;;;19.80;99.90;;;;;;4888552;29;20044;-59
2022/06/05 11:00:37;;;;;;;;;;;19.80;99.90;;;;;;4890277;29;19915;-58
2022/06/05 11:03:21;;;;;;;;;;;19.70;99.90;;;;;;4890793;29;19922;-58
2022/06/05 11:05:50;;;;;;;;;;;19.60;99.90;;;;;;4886873;29;19935;-59
2022/06/05 11:08:39;;;;;;;;;;;19.50;99.90;;;;;;4891047;29;19947;-58
2022/06/05 11:14:00;;;;;;;;;;;19.60;99.90;;;;;;4890558;29;19995;-58
2022/06/05 11:16:28;;;;;;;;;;;19.50;99.90;;;;;;4867493;29;19923;-58
2022/06/05 11:19:06;;;;;;;;;;;19.40;99.90;;;;;;4891962;29;20021;-58
2022/06/05 11:21:32;;;;;;;;;;;19.20;99.90;;;;;;4891041;29;20038;-58
2022/06/05 11:23:58;;;;;;;;;;;19.20;99.90;;;;;;4893375;29;19918;-58
2022/06/05 11:26:33;;;;;;;;;;;19.20;99.90;;;;;;4893018;29;19915;-58
2022/06/05 11:29:25;;;;;;;;;;;19.10;99.90;;;;;;4890539;29;19911;-58
2022/06/05 11:31:54;;;;;;;;;;;19.10;99.90;;;;;;4888801;29;19922;-59
2022/06/05 11:34:22;;;;;;;;;;;19.20;99.90;;;;;;4890830;29;20086;-58
2022/06/05 11:36:52;;;;;;;;;;;19.40;99.90;;;;;;4893945;29;19912;-59
2022/06/05 11:39:20;;;;;;;;;;;19.50;99.90;;;;;;4894046;29;20002;-58
2022/06/05 11:41:53;;;;;;;;;;;19.60;99.90;;;;;;4892318;29;19911;-58
2022/06/05 11:44:22;;;;;;;;;;;19.60;99.90;;;;;;4894283;29;19940;-58
2022/06/05 11:46:47;;;;;;;;;;;19.60;99.90;;;;;;4893206;29;20331;-58
2022/06/05 11:49:16;;;;;;;;;;;19.80;99.90;;;;;;4894009;29;19919;-59
2022/06/05 11:51:52;;;;;;;;;;;19.80;99.90;;;;;;4893363;29;19911;-58
2022/06/05 11:54:24;;;;;;;;;;;20.10;99.90;;;;;;4893963;29;19911;-58
2022/06/05 11:57:08;;;;;;;;;;;20.00;99.90;;;;;;4893523;29;19917;-58
2022/06/05 11:59:39;;;;;;;;;;;20.00;99.90;;;;;;4893382;29;20077;-58
2022/06/05 12:02:24;;;;;;;;;;;20.00;99.90;;;;;;4890781;29;19907;-58
2022/06/05 12:04:49;;;;;;;;;;;20.00;99.90;;;;;;4896530;29;19927;-59
2022/06/05 12:07:16;;;;;;;;;;;20.10;99.90;;;;;;4895789;29;20398;-58
2022/06/05 12:09:50;;;;;;;;;;;20.20;99.90;;;;;;4893072;29;20291;-58
2022/06/05 12:12:23;;;;;;;;;;;20.10;99.90;;;;;;4894050;29;19907;-58
2022/06/05 12:14:50;;;;;;;;;;;19.90;99.90;;;;;;4893993;29;19918;-58
2022/06/05 12:17:15;;;;;;;;;;;20.00;99.90;;;;;;4889452;29;20268;-58
2022/06/05 12:19:47;;;;;;;;;;;19.80;99.90;;;;;;4892891;29;19922;-59
2022/06/05 12:22:28;;;;;;;;;;;20.00;99.90;;;;;;4893450;29;20671;-58
2022/06/05 12:25:00;;;;;;;;;;;20.20;99.90;;;;;;4891435;29;19915;-59
2022/06/05 12:27:39;;;;;;;;;;;20.10;99.90;;;;;;4893580;29;19911;-58
2022/06/05 12:30:07;;;;;;;;;;;20.10;99.90;;;;;;4890193;29;19912;-58
2022/06/05 12:32:39;;;;;;;;;;;20.00;99.90;;;;;;4892859;29;19912;-58
2022/06/05 12:35:13;;;;;;;;;;;19.90;99.90;;;;;;4891653;29;20340;-58
2022/06/05 12:37:59;;;;;;;;;;;20.00;99.90;;;;;;4892733;29;19918;-59
2022/06/05 12:40:31;;;;;;;;;;;20.30;99.90;;;;;;4867567;29;19927;-59
2022/06/05 12:43:03;;;;;;;;;;;20.40;99.90;;;;;;4890783;29;19907;-58
2022/06/05 12:45:31;;;;;;;;;;;20.30;99.90;;;;;;4895290;29;20006;-59
2022/06/05 12:47:59;;;;;;;;;;;20.30;99.90;;;;;;4894692;29;19916;-58
2022/06/05 12:50:43;;;;;;;;;;;20.20;99.90;;;;;;4893034;29;19919;-58
2022/06/05 12:53:27;;;;;;;;;;;20.00;99.90;;;;;;4892606;29;19907;-58
2022/06/05 12:55:54;;;;;;;;;;;19.90;99.90;;;;;;4892752;29;19983;-58
2022/06/05 12:58:45;;;;;;;;;;;19.50;99.90;;;;;;4893020;29;19922;-58
2022/06/05 13:01:15;;;;;;;;;;;19.30;99.90;;;;;;4873964;29;19970;-58
2022/06/05 13:03:50;;;;;;;;;;;19.60;99.90;;;;;;4891865;29;19911;-59
2022/06/05 13:06:35;;;;;;;;;;;19.80;99.90;;;;;;4891153;29;20378;-58
2022/06/05 13:09:06;;;;;;;;;;;20.30;99.90;;;;;;4889621;29;19922;-58
2022/06/05 13:11:40;;;;;;;;;;;20.30;99.90;;;;;;4892631;29;19942;-58
2022/06/05 13:14:09;;;;;;;;;;;20.80;99.90;;;;;;4892503;29;19911;-59
2022/06/05 13:16:37;;;;;;;;;;;21.20;99.90;;;;;;4888620;29;19966;-58
2022/06/05 13:19:08;;;;;;;;;;;21.30;99.90;;;;;;4889603;29;19922;-58
2022/06/05 13:21:52;;;;;;;;;;;21.20;99.90;;;;;;4891943;29;19912;-58
2022/06/05 13:24:23;;;;;;;;;;;21.20;99.90;;;;;;4891310;29;19915;-58
2022/06/05 13:26:59;;;;;;;;;;;21.10;99.90;;;;;;4894398;29;20535;-59
2022/06/05 13:29:34;;;;;;;;;;;21.30;99.90;;;;;;4890415;29;19911;-58
2022/06/05 13:32:08;;;;;;;;;;;21.40;99.90;;;;;;4892221;29;19937;-59
2022/06/05 13:34:38;;;;;;;;;;;21.70;99.90;;;;;;4891640;29;20277;-57
2022/06/05 13:37:09;;;;;;;;;;;21.30;99.90;;;;;;4892297;29;20006;-58
2022/06/05 13:39:38;;;;;;;;;;;21.30;99.90;;;;;;4891790;29;19926;-58
2022/06/05 13:42:16;;;;;;;;;;;21.60;99.90;;;;;;4892284;29;19945;-58
2022/06/05 13:44:43;;;;;;;;;;;21.80;99.90;;;;;;4889003;29;19918;-59
2022/06/05 13:47:33;;;;;;;;;;;22.10;99.90;;;;;;4890630;29;19907;-59
2022/06/05 13:49:59;;;;;;;;;;;22.50;99.90;;;;;;4889268;29;19911;-58
2022/06/05 13:52:34;;;;;;;;;;;22.50;99.90;;;;;;4892330;29;20434;-58
2022/06/05 13:55:06;;;;;;;;;;;23.20;99.90;;;;;;4891899;29;20285;-59
2022/06/05 13:57:41;;;;;;;;;;;23.40;99.90;;;;;;4890658;29;19915;-59
2022/06/05 14:00:25;;;;;;;;;;;23.40;99.90;;;;;;4891911;29;19915;-59
2022/06/05 14:03:07;;;;;;;;;;;22.80;99.90;;;;;;4891616;29;19911;-58
2022/06/05 14:05:35;;;;;;;;;;;22.60;99.90;;;;;;4888876;29;20311;-59
2022/06/05 14:08:03;;;;;;;;;;;22.40;99.90;;;;;;4894521;29;19907;-58
2022/06/05 14:10:33;;;;;;;;;;;21.90;99.90;;;;;;4892183;29;19922;-58
2022/06/05 14:13:07;;;;;;;;;;;21.80;99.90;;;;;;4890942;29;19963;-59
2022/06/05 14:15:39;;;;;;;;;;;21.80;99.90;;;;;;4887832;29;19934;-59
2022/06/05 14:18:04;;;;;;;;;;;21.10;99.90;;;;;;4893079;29;19955;-58
2022/06/05 14:20:32;;;;;;;;;;;20.90;99.90;;;;;;4891512;29;20344;-58
2022/06/05 14:22:59;;;;;;;;;;;20.50;99.90;;;;;;4890864;29;19915;-58
2022/06/05 14:25:25;;;;;;;;;;;20.40;99.90;;;;;;4891778;29;19912;-59
2022/06/05 14:27:53;;;;;;;;;;;20.20;99.90;;;;;;4890868;29;19919;-58
2022/06/05 14:30:20;;;;;;;;;;;20.00;99.90;;;;;;4891478;29;19912;-58
2022/06/05 14:32:46;;;;;;;;;;;19.90;99.90;;;;;;4890788;29;19954;-59
2022/06/05 14:35:15;;;;;;;;;;;19.90;99.90;;;;;;4889447;29;20630;-58
2022/06/05 14:37:52;;;;;;;;;;;19.70;99.90;;;;;;4890574;29;20372;-58
2022/06/05 14:40:20;;;;;;;;;;;19.60;99.90;;;;;;4891249;29;19997;-58
2022/06/05 14:42:45;;;;;;;;;;;19.50;99.90;;;;;;4890590;29;20438;-58
2022/06/05 14:45:14;;;;;;;;;;;19.50;99.90;;;;;;4892414;29;19954;-59
2022/06/05 14:47:43;;;;;;;;;;;19.50;99.90;;;;;;4893083;29;20364;-59